createdAt,value
2023-02-05T00:01:28.537Z,5.38
2023-02-05T00:03:55.573Z,5.35
2023-02-05T00:06:22.410Z,5.14
2023-02-05T00:08:49.260Z,5.34
2023-02-05T00:11:16.087Z,5.25
2023-02-05T00:13:43.493Z,5.36
2023-02-05T00:16:19.303Z,5.11
2023-02-05T00:18:47.391Z,5.37
2023-02-05T00:21:15.820Z,5.22
2023-02-05T00:23:42.977Z,5.33
2023-02-05T00:26:10.681Z,5.37
2023-02-05T00:28:38.293Z,5.32
2023-02-05T00:31:14.426Z,5.35
2023-02-05T00:33:41.558Z,5.22
2023-02-05T00:36:11.912Z,5.32
2023-02-05T00:38:40.406Z,5.21
2023-02-05T00:41:07.460Z,5.36
2023-02-05T00:43:34.354Z,5.39
2023-02-05T00:46:01.274Z,5.39
2023-02-05T00:48:28.166Z,5.40
2023-02-05T00:50:55.130Z,5.40
2023-02-05T00:53:23.661Z,5.38
2023-02-05T00:55:51.063Z,5.38
2023-02-05T00:58:18.523Z,5.39
2023-02-05T01:00:45.480Z,5.39
2023-02-05T01:03:13.398Z,5.28
2023-02-05T01:05:40.899Z,5.32
2023-02-05T01:08:09.141Z,5.41
2023-02-05T01:10:37.210Z,5.41
2023-02-05T01:13:05.815Z,5.38
2023-02-05T01:15:33.470Z,5.39
2023-02-05T01:18:01.018Z,5.43
2023-02-05T01:20:29.009Z,5.31
2023-02-05T01:22:56.431Z,5.45
2023-02-05T01:25:23.897Z,5.41
2023-02-05T01:27:50.809Z,5.17
2023-02-05T01:30:17.679Z,5.36
2023-02-05T01:32:44.500Z,5.41
2023-02-05T01:35:11.364Z,5.33
2023-02-05T01:37:38.249Z,5.45
2023-02-05T01:40:05.817Z,5.45
2023-02-05T01:42:33.863Z,5.43
2023-02-05T01:45:22.466Z,5.46
2023-02-05T01:47:58.739Z,5.47
2023-02-05T01:50:43.291Z,5.44
2023-02-05T01:53:22.583Z,5.45
2023-02-05T01:55:57.475Z,5.45
2023-02-05T01:58:27.438Z,5.40
2023-02-05T02:00:54.528Z,5.40
2023-02-05T02:03:22.644Z,5.44
2023-02-05T02:05:49.511Z,5.44
2023-02-05T02:08:16.561Z,5.42
2023-02-05T02:10:45.229Z,5.47
2023-02-05T02:13:12.954Z,5.48
2023-02-05T02:15:40.908Z,5.44
2023-02-05T02:18:27.182Z,5.45
2023-02-05T02:21:28.114Z,5.48
2023-02-05T02:24:13.170Z,5.46
2023-02-05T02:27:12.186Z,5.46
2023-02-05T02:29:49.056Z,5.43
2023-02-05T02:32:31.882Z,5.39
2023-02-05T02:35:08.522Z,5.38
2023-02-05T02:37:49.601Z,5.42
2023-02-05T02:40:25.529Z,5.42
2023-02-05T02:43:07.902Z,5.39
2023-02-05T02:45:43.618Z,5.35
2023-02-05T02:48:11.519Z,5.40
2023-02-05T02:50:44.609Z,5.27
2023-02-05T02:53:25.346Z,5.43
2023-02-05T02:55:53.328Z,5.26
2023-02-05T02:58:33.232Z,5.40
2023-02-05T03:01:04.379Z,5.41
2023-02-05T03:03:37.106Z,5.43
2023-02-05T03:06:07.774Z,5.42
2023-02-05T03:08:56.460Z,5.38
2023-02-05T03:11:24.108Z,5.38
2023-02-05T03:13:50.993Z,5.39
2023-02-05T03:16:19.807Z,5.36
2023-02-05T03:18:47.830Z,5.38
2023-02-05T03:21:49.190Z,5.17
2023-02-05T03:24:16.616Z,5.38
2023-02-05T03:26:43.472Z,5.22
2023-02-05T03:29:16.222Z,5.34
2023-02-05T03:32:34.972Z,5.37
2023-02-05T03:35:19.582Z,5.31
2023-02-05T03:38:10.648Z,5.40
2023-02-05T03:41:00.975Z,5.33
2023-02-05T03:44:00.752Z,5.36
2023-02-05T03:46:58.236Z,5.22
2023-02-05T03:50:08.802Z,5.32
2023-02-05T03:52:42.660Z,5.30
2023-02-05T03:55:22.620Z,5.33
2023-02-05T03:58:15.336Z,5.36
2023-02-05T04:00:42.799Z,5.29
2023-02-05T04:03:09.769Z,5.32
2023-02-05T04:05:36.840Z,5.31
2023-02-05T04:08:04.615Z,5.26
2023-02-05T04:10:31.505Z,5.24
2023-02-05T04:12:58.467Z,5.32
2023-02-05T04:15:25.757Z,5.22
2023-02-05T04:17:52.642Z,5.29
2023-02-05T04:20:19.600Z,5.28
2023-02-05T04:22:46.428Z,5.26
2023-02-05T04:25:13.290Z,5.34
2023-02-05T04:27:40.091Z,5.29
2023-02-05T04:30:07.578Z,5.31
2023-02-05T04:32:34.432Z,5.28
2023-02-05T04:35:01.264Z,5.28
2023-02-05T04:37:28.125Z,5.19
2023-02-05T04:39:54.990Z,5.24
2023-02-05T04:42:21.823Z,5.27
2023-02-05T04:44:48.674Z,5.23
2023-02-05T04:47:15.699Z,5.21
2023-02-05T04:49:42.563Z,5.19
2023-02-05T04:52:09.623Z,5.17
2023-02-05T04:54:39.530Z,5.13
2023-02-05T04:57:06.442Z,5.01
2023-02-05T04:59:33.269Z,4.98
2023-02-05T05:02:00.679Z,5.11
2023-02-05T05:04:27.541Z,5.13
2023-02-05T05:06:54.407Z,5.16
2023-02-05T05:09:24.068Z,4.98
2023-02-05T05:11:54.532Z,4.93
2023-02-05T05:14:21.438Z,5.10
2023-02-05T05:16:50.138Z,5.03
2023-02-05T05:19:17.201Z,5.01
2023-02-05T05:21:44.080Z,4.95
2023-02-05T05:24:10.916Z,4.92
2023-02-05T05:26:43.583Z,4.94
2023-02-05T05:29:14.636Z,4.96
2023-02-05T05:31:42.419Z,4.91
2023-02-05T05:34:09.447Z,4.89
2023-02-05T05:36:36.395Z,4.78
2023-02-05T05:39:22.137Z,4.85
2023-02-05T05:42:07.571Z,4.87
2023-02-05T05:44:34.429Z,4.79
2023-02-05T05:47:01.368Z,4.49
2023-02-05T05:49:28.258Z,4.81
2023-02-05T05:51:55.198Z,4.75
2023-02-05T05:54:22.145Z,4.67
2023-02-05T05:56:49.687Z,4.80
2023-02-05T05:59:16.956Z,4.81
2023-02-05T06:01:44.023Z,4.81
2023-02-05T06:04:10.903Z,4.74
2023-02-05T06:06:38.109Z,4.70
2023-02-05T06:09:05.288Z,4.73
2023-02-05T06:11:32.165Z,4.72
2023-02-05T06:13:59.068Z,4.73
2023-02-05T06:16:25.989Z,4.67
2023-02-05T06:18:55.096Z,4.77
2023-02-05T06:21:22.582Z,4.75
2023-02-05T06:23:49.461Z,4.70
2023-02-05T06:26:16.268Z,4.49
2023-02-05T06:28:43.230Z,4.71
2023-02-05T06:31:10.233Z,4.50
2023-02-05T06:33:37.157Z,4.68
2023-02-05T06:36:04.497Z,4.66
2023-02-05T06:38:31.343Z,4.52
2023-02-05T06:40:58.217Z,4.73
2023-02-05T06:43:25.209Z,4.71
2023-02-05T06:45:52.112Z,4.74
2023-02-05T06:48:19.304Z,4.66
2023-02-05T06:50:46.463Z,4.71
2023-02-05T06:53:13.842Z,4.65
2023-02-05T06:55:40.782Z,4.76
2023-02-05T06:58:07.928Z,4.66
2023-02-05T07:00:35.816Z,4.75
2023-02-05T07:03:02.893Z,4.69
2023-02-05T07:05:29.787Z,4.66
2023-02-05T07:07:56.651Z,4.42
2023-02-05T07:10:23.536Z,4.74
2023-02-05T07:12:50.332Z,4.74
2023-02-05T07:15:17.226Z,4.73
2023-02-05T07:17:44.179Z,4.70
2023-02-05T07:20:11.376Z,4.70
2023-02-05T07:22:38.333Z,4.34
2023-02-05T07:25:05.424Z,4.72
2023-02-05T07:27:32.240Z,4.71
2023-02-05T07:30:00.048Z,4.75
2023-02-05T07:32:26.880Z,4.42
2023-02-05T07:34:53.757Z,4.73
2023-02-05T07:37:21.519Z,4.76
2023-02-05T07:39:48.546Z,4.63
2023-02-05T07:42:15.385Z,4.80
2023-02-05T07:44:42.249Z,4.82
2023-02-05T07:47:09.296Z,4.77
2023-02-05T07:49:36.126Z,4.85
2023-02-05T07:52:03.033Z,4.75
2023-02-05T07:54:29.953Z,4.81
2023-02-05T07:56:56.910Z,4.81
2023-02-05T07:59:23.812Z,4.81
2023-02-05T08:01:50.650Z,4.90
2023-02-05T08:04:17.485Z,4.78
2023-02-05T08:06:44.533Z,4.98
2023-02-05T08:09:11.489Z,4.98
2023-02-05T08:11:38.380Z,4.97
2023-02-05T08:14:05.300Z,4.99
2023-02-05T08:16:32.087Z,4.94
2023-02-05T08:18:58.913Z,4.96
2023-02-05T08:21:25.720Z,4.98
2023-02-05T08:23:52.635Z,4.96
2023-02-05T08:26:19.599Z,5.02
2023-02-05T08:28:46.485Z,5.01
2023-02-05T08:31:17.381Z,4.98
2023-02-05T08:33:44.562Z,4.92
2023-02-05T08:36:11.853Z,5.07
2023-02-05T08:38:38.905Z,5.02
2023-02-05T08:41:14.674Z,5.09
2023-02-05T08:43:46.756Z,5.10
2023-02-05T08:46:18.660Z,5.01
2023-02-05T08:48:47.122Z,5.08
2023-02-05T08:51:15.104Z,5.03
2023-02-05T08:53:42.329Z,5.12
2023-02-05T08:56:14.031Z,5.14
2023-02-05T08:58:41.057Z,5.07
2023-02-05T09:01:14.650Z,5.18
2023-02-05T09:03:41.812Z,5.06
2023-02-05T09:06:13.168Z,5.16
2023-02-05T09:08:40.195Z,5.20
2023-02-05T09:11:08.283Z,5.21
2023-02-05T09:13:35.446Z,5.26
2023-02-05T09:16:02.586Z,5.23
2023-02-05T09:18:29.536Z,5.31
2023-02-05T09:20:56.915Z,5.32
2023-02-05T09:23:23.857Z,5.35
2023-02-05T09:25:50.752Z,5.37
2023-02-05T09:28:17.711Z,5.41
2023-02-05T09:30:46.289Z,5.44
2023-02-05T09:33:14.205Z,5.44
2023-02-05T09:35:42.038Z,5.49
2023-02-05T09:38:09.805Z,5.46
2023-02-05T09:40:59.196Z,5.49
2023-02-05T09:43:53.173Z,5.16
2023-02-05T09:46:53.697Z,5.47
2023-02-05T09:49:44.237Z,5.24
2023-02-05T09:52:30.902Z,5.53
2023-02-05T09:55:15.180Z,5.48
2023-02-05T09:57:42.398Z,5.53
2023-02-05T10:00:29.357Z,5.54
2023-02-05T10:03:25.901Z,5.57
2023-02-05T10:06:13.640Z,5.58
2023-02-05T10:08:58.568Z,5.57
2023-02-05T10:12:19.058Z,5.59
2023-02-05T10:15:33.575Z,5.63
2023-02-05T10:18:51.521Z,5.68
2023-02-05T10:21:56.689Z,5.72
2023-02-05T10:25:02.652Z,5.71
2023-02-05T10:27:46.093Z,5.67
2023-02-05T10:30:51.811Z,5.59
2023-02-05T10:33:35.580Z,5.65
2023-02-05T10:36:08.384Z,5.70
2023-02-05T10:38:43.254Z,5.64
2023-02-05T10:41:33.424Z,5.65
2023-02-05T10:44:46.554Z,5.64
2023-02-05T10:47:26.250Z,5.67
2023-02-05T10:50:07.630Z,5.67
2023-02-05T10:52:35.054Z,5.66
2023-02-05T10:55:01.889Z,5.66
2023-02-05T10:57:33.707Z,5.56
2023-02-05T11:00:16.084Z,5.64
2023-02-05T11:02:48.922Z,5.64
2023-02-05T11:05:30.848Z,5.66
2023-02-05T11:07:58.715Z,5.63
2023-02-05T11:10:33.207Z,5.72
2023-02-05T11:13:21.575Z,5.74
2023-02-05T11:16:09.102Z,5.63
2023-02-05T11:18:42.101Z,5.79
2023-02-05T11:21:10.120Z,5.77
2023-02-05T11:23:43.082Z,5.81
2023-02-05T11:26:23.423Z,5.82
2023-02-05T11:28:50.873Z,5.84
2023-02-05T11:31:28.993Z,5.82
2023-02-05T11:34:08.137Z,5.90
2023-02-05T11:36:48.171Z,5.91
2023-02-05T11:39:36.740Z,5.90
2023-02-05T11:42:15.851Z,5.90
2023-02-05T11:45:02.133Z,5.91
2023-02-05T11:47:36.245Z,5.77
2023-02-05T11:50:05.773Z,5.88
2023-02-05T11:52:37.322Z,6.03
2023-02-05T11:55:05.279Z,5.98
2023-02-05T11:57:39.231Z,6.07
2023-02-05T12:00:08.741Z,6.06
2023-02-05T12:02:38.516Z,6.03
2023-02-05T12:05:19.478Z,6.06
2023-02-05T12:07:51.221Z,5.92
2023-02-05T12:10:57.862Z,5.99
2023-02-05T12:14:07.205Z,5.87
2023-02-05T12:16:51.808Z,6.07
2023-02-05T12:19:59.655Z,6.07
2023-02-05T12:23:06.613Z,6.15
2023-02-05T12:25:48.229Z,6.18
2023-02-05T12:28:27.103Z,6.23
2023-02-05T12:31:22.330Z,6.26
2023-02-05T12:34:17.055Z,6.29
2023-02-05T12:37:05.304Z,6.28
2023-02-05T12:40:00.119Z,6.31
2023-02-05T12:42:36.043Z,6.32
2023-02-05T12:45:08.492Z,6.34
2023-02-05T12:47:51.666Z,6.35
2023-02-05T12:50:48.587Z,6.37
2023-02-05T12:53:43.920Z,6.31
2023-02-05T12:56:29.538Z,6.39
2023-02-05T12:59:03.472Z,6.38
2023-02-05T13:01:43.255Z,6.35
2023-02-05T13:04:41.750Z,6.41
2023-02-05T13:07:31.946Z,6.45
2023-02-05T13:10:17.192Z,6.45
2023-02-05T13:12:50.507Z,6.48
2023-02-05T13:15:42.628Z,6.48
2023-02-05T13:18:22.989Z,6.45
2023-02-05T13:21:22.573Z,6.43
2023-02-05T13:24:11.764Z,6.42
2023-02-05T13:27:05.178Z,6.46
2023-02-05T13:29:51.394Z,6.40
2023-02-05T13:32:22.328Z,6.31
2023-02-05T13:34:54.544Z,6.10
2023-02-05T13:37:47.529Z,6.26
2023-02-05T13:40:41.991Z,6.32
2023-02-05T13:43:52.715Z,6.33
2023-02-05T13:46:53.617Z,6.29
2023-02-05T13:49:53.983Z,6.18
2023-02-05T13:52:54.288Z,6.46
2023-02-05T13:56:11.509Z,6.47
2023-02-05T13:58:55.373Z,6.48
2023-02-05T14:01:49.627Z,6.51
2023-02-05T14:04:24.789Z,6.47
2023-02-05T14:07:05.174Z,6.48
2023-02-05T14:09:41.204Z,6.39
2023-02-05T14:12:21.494Z,6.51
2023-02-05T14:15:20.119Z,6.51
2023-02-05T14:17:46.777Z,6.51
2023-02-05T14:20:25.714Z,6.28
2023-02-05T14:22:55.200Z,5.94
2023-02-05T14:25:41.471Z,6.18
2023-02-05T14:28:28.111Z,6.14
2023-02-05T14:30:58.630Z,6.00
2023-02-05T14:33:42.239Z,5.82
2023-02-05T14:36:22.063Z,6.08
2023-02-05T14:39:03.030Z,6.21
2023-02-05T14:41:45.832Z,6.27
2023-02-05T14:44:12.501Z,6.30
2023-02-05T14:46:55.189Z,6.34
2023-02-05T14:49:26.942Z,6.37
2023-02-05T14:52:03.197Z,6.40
2023-02-05T14:54:44.562Z,6.26
2023-02-05T14:57:46.586Z,6.42
2023-02-05T15:00:36.364Z,6.41
2023-02-05T15:03:06.152Z,6.39
2023-02-05T15:05:44.982Z,6.36
2023-02-05T15:08:34.680Z,6.25
2023-02-05T15:11:28.612Z,6.10
2023-02-05T15:14:20.540Z,6.03
2023-02-05T15:17:10.672Z,5.88
2023-02-05T15:19:50.199Z,5.84
2023-02-05T15:22:26.609Z,5.87
2023-02-05T15:24:54.760Z,5.72
2023-02-05T15:27:38.308Z,5.72
2023-02-05T15:30:09.955Z,5.73
2023-02-05T15:32:51.357Z,5.79
2023-02-05T15:35:22.871Z,5.79
2023-02-05T15:37:55.112Z,5.71
2023-02-05T15:40:33.072Z,5.66
2023-02-05T15:43:25.427Z,5.62
2023-02-05T15:46:06.603Z,5.76
2023-02-05T15:48:37.030Z,5.88
2023-02-05T15:51:24.030Z,5.90
2023-02-05T15:53:51.921Z,5.81
2023-02-05T15:56:42.247Z,5.83
2023-02-05T15:59:21.896Z,5.64
2023-02-05T16:02:20.371Z,5.77
2023-02-05T16:04:58.452Z,5.74
2023-02-05T16:07:35.214Z,5.80
2023-02-05T16:10:17.543Z,5.87
2023-02-05T16:13:05.018Z,5.94
2023-02-05T16:15:49.336Z,6.06
2023-02-05T16:18:36.882Z,5.83
2023-02-05T16:21:37.601Z,5.95
2023-02-05T16:24:33.528Z,6.03
2023-02-05T16:27:13.522Z,6.09
2023-02-05T16:29:48.256Z,5.97
2023-02-05T16:32:33.580Z,6.03
2023-02-05T16:35:03.989Z,5.99
2023-02-05T16:37:31.625Z,6.07
2023-02-05T16:40:02.437Z,6.06
2023-02-05T16:42:46.209Z,6.13
2023-02-05T16:45:12.968Z,6.15
2023-02-05T16:47:40.069Z,6.03
2023-02-05T16:50:38.489Z,6.06
2023-02-05T16:53:26.796Z,5.86
2023-02-05T16:56:17.861Z,5.95
2023-02-05T16:58:50.224Z,6.12
2023-02-05T17:01:24.996Z,6.03
2023-02-05T17:03:51.992Z,6.09
2023-02-05T17:06:19.268Z,6.08
2023-02-05T17:08:55.362Z,6.12
2023-02-05T17:11:41.732Z,6.16
2023-02-05T17:14:31.082Z,6.16
2023-02-05T17:17:02.403Z,6.13
2023-02-05T17:19:33.200Z,6.18
2023-02-05T17:22:14.969Z,6.17
2023-02-05T17:24:50.054Z,6.17
2023-02-05T17:27:32.071Z,6.19
2023-02-05T17:30:00.069Z,6.19
2023-02-05T17:32:27.788Z,6.18
2023-02-05T17:34:55.269Z,5.99
2023-02-05T17:37:22.041Z,6.20
2023-02-05T17:39:51.468Z,6.21
2023-02-05T17:42:26.122Z,6.18
2023-02-05T17:44:53.743Z,6.13
2023-02-05T17:47:20.577Z,6.17
2023-02-05T17:49:47.996Z,6.15
2023-02-05T17:52:15.415Z,6.07
2023-02-05T17:54:43.440Z,6.22
2023-02-05T17:57:21.882Z,6.25
2023-02-05T17:59:49.387Z,6.23
2023-02-05T18:02:17.365Z,6.28
2023-02-05T18:04:44.940Z,6.18
2023-02-05T18:07:27.526Z,6.27
2023-02-05T18:09:54.361Z,6.26
2023-02-05T18:12:21.656Z,6.21
2023-02-05T18:14:48.619Z,6.21
2023-02-05T18:17:15.468Z,6.14
2023-02-05T18:19:42.342Z,6.24
2023-02-05T18:22:09.353Z,6.27
2023-02-05T18:24:37.000Z,6.27
2023-02-05T18:27:12.053Z,6.19
2023-02-05T18:29:39.827Z,6.21
2023-02-05T18:32:07.270Z,6.14
2023-02-05T18:34:34.204Z,6.25
2023-02-05T18:37:01.124Z,6.36
2023-02-05T18:39:28.429Z,6.35
2023-02-05T18:41:56.659Z,6.30
2023-02-05T18:44:24.210Z,6.29
2023-02-05T18:46:51.155Z,6.27
2023-02-05T18:49:18.865Z,6.29
2023-02-05T18:51:45.993Z,6.29
2023-02-05T18:54:12.906Z,6.30
2023-02-05T18:56:39.738Z,6.19
2023-02-05T18:59:09.558Z,6.28
2023-02-05T19:01:39.634Z,6.29
2023-02-05T19:04:11.026Z,6.30
2023-02-05T19:06:42.002Z,6.28
2023-02-05T19:09:09.796Z,6.27
2023-02-05T19:11:40.860Z,6.28
2023-02-05T19:14:11.877Z,6.27
2023-02-05T19:16:39.888Z,6.17
2023-02-05T19:19:07.855Z,6.29
2023-02-05T19:21:36.072Z,6.29
2023-02-05T19:24:09.709Z,6.28
2023-02-05T19:26:39.617Z,6.23
2023-02-05T19:29:12.961Z,6.22
2023-02-05T19:31:40.351Z,6.29
2023-02-05T19:34:07.668Z,6.16
2023-02-05T19:36:34.815Z,6.24
2023-02-05T19:39:04.690Z,6.10
2023-02-05T19:41:34.124Z,6.05
2023-02-05T19:44:04.258Z,5.95
2023-02-05T19:46:41.901Z,5.95
2023-02-05T19:49:20.326Z,5.91
2023-02-05T19:51:50.121Z,5.76
2023-02-05T19:54:20.585Z,5.91
2023-02-05T19:56:48.767Z,5.92
2023-02-05T19:59:16.782Z,5.91
2023-02-05T20:01:44.664Z,6.00
2023-02-05T20:04:18.434Z,6.06
2023-02-05T20:06:46.786Z,6.09
2023-02-05T20:09:16.362Z,6.08
2023-02-05T20:11:47.029Z,6.09
2023-02-05T20:14:14.326Z,5.94
2023-02-05T20:16:41.643Z,5.98
2023-02-05T20:19:11.642Z,5.99
2023-02-05T20:21:38.636Z,6.01
2023-02-05T20:24:07.289Z,6.07
2023-02-05T20:26:35.052Z,6.11
2023-02-05T20:29:20.370Z,6.12
2023-02-05T20:31:51.906Z,6.06
2023-02-05T20:34:22.635Z,6.03
2023-02-05T20:36:54.524Z,6.02
2023-02-05T20:39:24.132Z,6.09
2023-02-05T20:41:52.296Z,6.09
2023-02-05T20:44:19.480Z,6.11
2023-02-05T20:46:46.292Z,6.01
2023-02-05T20:49:14.239Z,6.08
2023-02-05T20:51:42.752Z,6.08
2023-02-05T20:54:10.212Z,6.10
2023-02-05T20:56:37.395Z,6.09
2023-02-05T20:59:07.726Z,6.10
2023-02-05T21:01:36.829Z,6.14
2023-02-05T21:04:06.591Z,6.16
2023-02-05T21:06:37.866Z,6.15
2023-02-05T21:09:06.322Z,6.12
2023-02-05T21:11:33.531Z,6.12
2023-02-05T21:14:00.407Z,6.11
2023-02-05T21:16:27.889Z,6.12
2023-02-05T21:18:55.691Z,6.06
2023-02-05T21:21:27.063Z,6.11
2023-02-05T21:24:05.355Z,6.11
2023-02-05T21:26:39.787Z,6.10
2023-02-05T21:29:19.847Z,6.11
2023-02-05T21:31:53.801Z,5.94
2023-02-05T21:34:24.908Z,6.11
2023-02-05T21:36:51.729Z,6.08
2023-02-05T21:39:20.421Z,6.08
2023-02-05T21:41:48.521Z,6.06
2023-02-05T21:44:15.409Z,6.07
2023-02-05T21:46:42.585Z,6.08
2023-02-05T21:49:11.589Z,6.09
2023-02-05T21:51:38.413Z,6.08
2023-02-05T21:54:06.505Z,6.07
2023-02-05T21:56:42.553Z,6.11
2023-02-05T21:59:11.962Z,5.99
2023-02-05T22:01:39.372Z,5.97
2023-02-05T22:04:16.329Z,6.06
2023-02-05T22:06:43.740Z,6.03
2023-02-05T22:09:14.049Z,6.03
2023-02-05T22:11:42.320Z,5.83
2023-02-05T22:14:10.706Z,6.06
2023-02-05T22:16:38.622Z,6.04
2023-02-05T22:19:06.005Z,6.05
2023-02-05T22:21:40.408Z,6.01
2023-02-05T22:24:10.629Z,6.00
2023-02-05T22:26:39.183Z,5.99
2023-02-05T22:29:08.601Z,5.98
2023-02-05T22:31:35.996Z,5.87
2023-02-05T22:34:03.898Z,6.00
2023-02-05T22:36:33.499Z,6.03
2023-02-05T22:39:01.227Z,6.00
2023-02-05T22:41:35.082Z,5.82
2023-02-05T22:44:03.945Z,5.96
2023-02-05T22:46:34.179Z,5.92
2023-02-05T22:49:03.397Z,5.87
2023-02-05T22:51:33.691Z,5.92
2023-02-05T22:54:00.793Z,6.01
2023-02-05T22:56:28.698Z,6.05
2023-02-05T22:58:56.226Z,6.00
2023-02-05T23:01:25.643Z,6.06
2023-02-05T23:03:53.303Z,6.02
2023-02-05T23:06:30.086Z,6.04
2023-02-05T23:09:06.677Z,6.01
2023-02-05T23:11:35.201Z,5.99
2023-02-05T23:14:04.950Z,5.98
2023-02-05T23:16:35.474Z,5.85
2023-02-05T23:19:24.066Z,6.01
2023-02-05T23:21:50.909Z,6.01
2023-02-05T23:24:18.710Z,6.05
2023-02-05T23:26:48.041Z,6.06
2023-02-05T23:29:17.129Z,6.08
2023-02-05T23:31:44.086Z,6.07
2023-02-05T23:34:11.422Z,6.01
2023-02-05T23:36:38.347Z,5.97
2023-02-05T23:39:05.663Z,6.05
2023-02-05T23:41:35.540Z,5.93
2023-02-05T23:44:22.976Z,5.86
2023-02-05T23:46:51.457Z,5.93
2023-02-05T23:49:23.310Z,5.93
2023-02-05T23:51:53.251Z,5.86
2023-02-05T23:54:21.276Z,5.90
2023-02-05T23:56:48.661Z,5.81
2023-02-05T23:59:16.205Z,5.78
